Time;durP1;ratioP1;P1;durP2;ratioP2;P2;SDS_P1;SDS_P2;PMS_P1;PMS_P2;Temp;Humidity;BMP_temperature;BMP_pressure;BME280_temperature;BME280_humidity;BME280_pressure;Samples;Min_cycle;Max_cycle;Signal;HPM_P1;HPM_P2
2021/08/22 00:00:32;;;;;;;25.97;18.80;;;;;;;;;;5099449;28;20452;-49
2021/08/22 00:03:01;;;;;;;67.13;50.83;;;;;;;;;;5099403;28;20647;-57
2021/08/22 00:05:29;;;;;;;31.60;24.13;;;;;;;;;;5099561;28;20432;-47
2021/08/22 00:07:57;;;;;;;15.33;10.37;;;;;;;;;;5099684;28;20466;-56
2021/08/22 00:10:43;;;;;;;13.20;10.00;;;;;;;;;;5087444;28;20484;-53
2021/08/22 00:13:10;;;;;;;13.80;8.90;;;;;;;;;;5097532;28;20452;-56
2021/08/22 00:15:39;;;;;;;158.03;125.40;;;;;;;;;;5083344;28;20516;-55
2021/08/22 00:18:09;;;;;;;194.93;139.27;;;;;;;;;;5079677;28;20453;-58
2021/08/22 00:20:38;;;;;;;432.90;318.43;;;;;;;;;;5078896;28;20441;-53
2021/08/22 00:26:09;;;;;;;302.63;208.47;;;;;;;;;;5119448;28;20441;-58
2021/08/22 00:28:37;;;;;;;163.33;112.13;;;;;;;;;;5105473;28;20448;-54
2021/08/22 00:31:06;;;;;;;83.03;54.90;;;;;;;;;;5099386;28;20483;-61
2021/08/22 00:33:34;;;;;;;49.03;35.00;;;;;;;;;;5099219;28;20437;-55
2021/08/22 00:36:02;;;;;;;245.17;215.13;;;;;;;;;;5099125;28;20478;-56
2021/08/22 00:38:44;;;;;;;480.37;414.17;;;;;;;;;;5098890;28;20494;-52
2021/08/22 00:41:11;;;;;;;111.23;86.53;;;;;;;;;;5078517;28;20468;-53
2021/08/22 00:43:39;;;;;;;62.87;46.57;;;;;;;;;;5086055;28;20464;-49
2021/08/22 00:46:37;;;;;;;200.23;170.80;;;;;;;;;;5098896;28;20478;-57
2021/08/22 00:49:05;;;;;;;30.10;21.87;;;;;;;;;;5098815;28;20486;-55
2021/08/22 00:51:33;;;;;;;77.03;56.40;;;;;;;;;;5098837;28;20502;-55
2021/08/22 00:54:22;;;;;;;15.73;11.33;;;;;;;;;;5098963;28;20456;-54
2021/08/22 00:56:49;;;;;;;18.03;12.63;;;;;;;;;;5097049;28;20487;-52
2021/08/22 00:59:17;;;;;;;102.27;87.17;;;;;;;;;;5098762;28;20441;-58
2021/08/22 01:02:02;;;;;;;204.93;163.83;;;;;;;;;;5098719;28;20754;-55
2021/08/22 01:04:44;;;;;;;64.63;46.10;;;;;;;;;;5078533;28;20441;-56
2021/08/22 01:07:33;;;;;;;61.07;42.80;;;;;;;;;;5078343;28;20437;-54
2021/08/22 01:10:00;;;;;;;48.70;34.70;;;;;;;;;;5077990;28;20448;-53
2021/08/22 01:12:30;;;;;;;21.20;16.40;;;;;;;;;;5078436;28;20481;-59
2021/08/22 01:15:02;;;;;;;29.23;20.10;;;;;;;;;;5077674;28;20461;-56
2021/08/22 01:17:31;;;;;;;16.63;14.53;;;;;;;;;;5078168;28;20441;-53
2021/08/22 01:20:06;;;;;;;27.30;24.00;;;;;;;;;;5077967;28;20512;-57
2021/08/22 01:22:36;;;;;;;27.90;19.77;;;;;;;;;;5077941;28;20465;-51
2021/08/22 01:25:06;;;;;;;30.33;22.60;;;;;;;;;;5078418;28;20425;-50
2021/08/22 01:27:42;;;;;;;19.60;14.17;;;;;;;;;;5078189;28;20468;-57
2021/08/22 01:30:11;;;;;;;18.73;15.73;;;;;;;;;;5077475;28;20463;-56
2021/08/22 01:32:40;;;;;;;16.73;13.60;;;;;;;;;;5077159;28;20515;-55
2021/08/22 01:35:08;;;;;;;17.97;13.50;;;;;;;;;;5077728;28;20457;-58
2021/08/22 01:37:38;;;;;;;13.77;12.30;;;;;;;;;;5077559;28;20425;-55
2021/08/22 01:40:07;;;;;;;15.10;13.37;;;;;;;;;;5083072;28;20517;-59
2021/08/22 01:42:35;;;;;;;14.30;11.40;;;;;;;;;;5096777;28;20448;-50
2021/08/22 01:45:03;;;;;;;16.97;13.50;;;;;;;;;;5095755;28;20494;-56
2021/08/22 01:47:31;;;;;;;14.73;12.63;;;;;;;;;;5096664;28;20498;-54
2021/08/22 01:50:01;;;;;;;16.27;13.30;;;;;;;;;;5097201;28;20440;-55
2021/08/22 01:52:28;;;;;;;15.60;12.70;;;;;;;;;;5096896;28;20484;-58
2021/08/22 01:54:56;;;;;;;14.00;10.70;;;;;;;;;;5097263;28;20440;-54
2021/08/22 01:57:23;;;;;;;10.93;9.80;;;;;;;;;;5096426;28;20478;-50
2021/08/22 01:59:50;;;;;;;13.47;10.70;;;;;;;;;;5095565;28;20456;-60
2021/08/22 02:02:18;;;;;;;14.20;9.83;;;;;;;;;;5096969;28;20448;-56
2021/08/22 02:04:49;;;;;;;10.40;8.70;;;;;;;;;;5096986;28;20487;-52
2021/08/22 02:07:19;;;;;;;14.33;8.67;;;;;;;;;;5097262;28;20460;-50
2021/08/22 02:09:51;;;;;;;13.30;8.27;;;;;;;;;;5097169;28;20436;-49
2021/08/22 02:12:20;;;;;;;11.20;7.27;;;;;;;;;;5096733;28;20488;-54
2021/08/22 02:14:54;;;;;;;13.07;8.90;;;;;;;;;;5097310;28;20460;-50
2021/08/22 02:17:32;;;;;;;16.67;9.47;;;;;;;;;;5097083;28;20452;-52
2021/08/22 02:20:01;;;;;;;10.40;7.87;;;;;;;;;;5110084;28;20471;-56
2021/08/22 02:22:29;;;;;;;11.20;7.20;;;;;;;;;;5117475;28;20447;-50
2021/08/22 02:24:58;;;;;;;7.50;6.07;;;;;;;;;;5117409;28;20448;-56
2021/08/22 02:27:25;;;;;;;13.70;7.07;;;;;;;;;;5117545;28;20489;-54
2021/08/22 02:29:53;;;;;;;8.10;6.70;;;;;;;;;;5117628;28;20423;-53
2021/08/22 02:32:20;;;;;;;8.50;7.00;;;;;;;;;;5117233;28;20495;-56
2021/08/22 02:34:47;;;;;;;10.50;7.63;;;;;;;;;;5116867;28;20463;-53
2021/08/22 02:37:22;;;;;;;10.93;6.70;;;;;;;;;;5116715;28;20629;-54
2021/08/22 02:39:51;;;;;;;9.30;7.30;;;;;;;;;;5115132;28;20489;-55
2021/08/22 02:42:19;;;;;;;9.77;7.70;;;;;;;;;;5116337;28;20450;-48
2021/08/22 02:44:56;;;;;;;10.43;6.87;;;;;;;;;;5116992;28;20458;-58
2021/08/22 02:47:24;;;;;;;10.53;7.17;;;;;;;;;;5116805;28;20458;-56
2021/08/22 02:49:51;;;;;;;9.27;7.70;;;;;;;;;;5116999;28;20428;-50
2021/08/22 02:52:18;;;;;;;9.57;7.50;;;;;;;;;;5116668;28;20482;-56
2021/08/22 02:54:46;;;;;;;10.13;7.50;;;;;;;;;;5099409;28;20497;-51
2021/08/22 02:57:17;;;;;;;11.03;8.30;;;;;;;;;;5117231;28;20451;-56
2021/08/22 02:59:47;;;;;;;11.57;7.40;;;;;;;;;;5116866;28;20531;-56
2021/08/22 03:02:14;;;;;;;9.33;8.30;;;;;;;;;;5117204;28;20439;-54
2021/08/22 03:04:44;;;;;;;10.50;8.07;;;;;;;;;;5116764;28;20698;-53
2021/08/22 03:07:11;;;;;;;11.10;8.27;;;;;;;;;;5116995;28;20435;-50
2021/08/22 03:09:38;;;;;;;9.77;7.77;;;;;;;;;;5117147;28;20474;-56
2021/08/22 03:12:08;;;;;;;9.60;8.37;;;;;;;;;;5116793;28;20496;-50
2021/08/22 03:14:37;;;;;;;8.67;7.77;;;;;;;;;;5116972;28;20447;-55
2021/08/22 03:17:04;;;;;;;11.40;10.20;;;;;;;;;;5117091;28;20454;-53
2021/08/22 03:19:42;;;;;;;10.47;9.37;;;;;;;;;;5116681;28;20443;-48
2021/08/22 03:22:09;;;;;;;9.97;8.77;;;;;;;;;;5117000;28;20450;-53
2021/08/22 03:24:36;;;;;;;14.10;9.20;;;;;;;;;;5117351;28;20455;-53
2021/08/22 03:27:03;;;;;;;9.70;8.53;;;;;;;;;;5117290;28;20475;-53
2021/08/22 03:29:31;;;;;;;12.00;8.50;;;;;;;;;;5116870;28;20436;-57
2021/08/22 03:32:16;;;;;;;9.30;8.13;;;;;;;;;;5117074;28;20459;-53
2021/08/22 03:34:43;;;;;;;10.27;7.77;;;;;;;;;;5117053;28;20415;-57
2021/08/22 03:37:10;;;;;;;9.70;7.60;;;;;;;;;;5116726;28;20448;-53
2021/08/22 03:39:37;;;;;;;9.63;8.63;;;;;;;;;;5116109;28;20483;-53
2021/08/22 03:42:05;;;;;;;12.50;8.50;;;;;;;;;;5116906;28;20473;-56
2021/08/22 03:44:43;;;;;;;11.00;9.10;;;;;;;;;;5116608;28;20431;-54
2021/08/22 03:47:11;;;;;;;11.03;9.40;;;;;;;;;;5116471;28;20459;-59
2021/08/22 03:49:39;;;;;;;11.50;8.57;;;;;;;;;;5116343;28;20515;-54
2021/08/22 03:52:07;;;;;;;13.57;9.63;;;;;;;;;;5116917;28;20490;-56
2021/08/22 03:54:34;;;;;;;10.70;9.33;;;;;;;;;;5118635;28;20475;-56
2021/08/22 03:57:01;;;;;;;11.60;10.40;;;;;;;;;;5102334;28;20452;-55
2021/08/22 03:59:29;;;;;;;10.90;9.80;;;;;;;;;;5100372;28;20468;-54
2021/08/22 04:01:56;;;;;;;12.00;10.30;;;;;;;;;;5099674;28;20440;-56
2021/08/22 04:04:23;;;;;;;12.23;9.80;;;;;;;;;;5099797;28;20459;-58
2021/08/22 04:06:52;;;;;;;11.23;10.10;;;;;;;;;;5099990;28;20478;-56
2021/08/22 04:09:25;;;;;;;14.90;11.10;;;;;;;;;;5099831;28;20459;-58
2021/08/22 04:11:54;;;;;;;12.33;10.97;;;;;;;;;;5111534;28;20921;-54
2021/08/22 04:14:21;;;;;;;14.50;11.47;;;;;;;;;;5120563;28;20438;-59
2021/08/22 04:16:52;;;;;;;16.37;11.97;;;;;;;;;;5120474;28;20467;-53
2021/08/22 04:19:19;;;;;;;14.60;11.97;;;;;;;;;;5099752;28;20466;-55
2021/08/22 04:21:46;;;;;;;13.70;9.87;;;;;;;;;;5099832;28;20428;-50
2021/08/22 04:24:16;;;;;;;14.17;11.70;;;;;;;;;;5104722;28;20451;-53
2021/08/22 04:26:43;;;;;;;11.90;10.40;;;;;;;;;;5119614;28;20477;-56
2021/08/22 04:29:11;;;;;;;13.20;11.80;;;;;;;;;;5119614;28;20444;-51
2021/08/22 04:31:38;;;;;;;16.30;12.23;;;;;;;;;;5120030;28;20544;-54
2021/08/22 04:34:05;;;;;;;13.50;10.73;;;;;;;;;;5120016;28;20419;-55
2021/08/22 04:36:34;;;;;;;14.77;12.00;;;;;;;;;;5119870;28;20466;-57
2021/08/22 04:39:01;;;;;;;14.20;12.00;;;;;;;;;;5119639;28;20447;-54
2021/08/22 04:41:30;;;;;;;16.73;13.07;;;;;;;;;;5119394;28;20489;-54
2021/08/22 04:43:57;;;;;;;14.77;12.13;;;;;;;;;;5119384;28;20459;-57
2021/08/22 04:46:26;;;;;;;15.50;12.30;;;;;;;;;;5119891;28;20451;-59
2021/08/22 04:48:54;;;;;;;18.17;13.40;;;;;;;;;;5119919;28;20435;-53
2021/08/22 04:51:21;;;;;;;22.53;16.80;;;;;;;;;;5119557;28;20443;-55
2021/08/22 04:53:48;;;;;;;16.50;14.07;;;;;;;;;;5119215;28;20552;-56
2021/08/22 04:56:15;;;;;;;19.00;13.40;;;;;;;;;;5119114;28;20459;-52
2021/08/22 04:58:44;;;;;;;17.10;13.30;;;;;;;;;;5119008;28;20473;-58
2021/08/22 05:01:23;;;;;;;19.47;14.60;;;;;;;;;;5119129;28;20451;-52
2021/08/22 05:03:51;;;;;;;15.63;13.00;;;;;;;;;;5118818;28;20556;-52
2021/08/22 05:06:18;;;;;;;18.40;13.60;;;;;;;;;;5118277;28;20456;-58
2021/08/22 05:08:45;;;;;;;18.07;13.23;;;;;;;;;;5118948;28;20469;-47
2021/08/22 05:11:12;;;;;;;15.27;13.10;;;;;;;;;;5118795;28;20463;-58
2021/08/22 05:13:44;;;;;;;17.53;13.90;;;;;;;;;;5119261;28;20470;-53
2021/08/22 05:16:12;;;;;;;14.57;12.23;;;;;;;;;;5118703;28;20455;-55
2021/08/22 05:18:40;;;;;;;14.80;12.80;;;;;;;;;;5116104;28;20481;-58
2021/08/22 05:21:22;;;;;;;14.57;10.90;;;;;;;;;;5114962;28;20469;-53
2021/08/22 05:23:49;;;;;;;13.90;11.70;;;;;;;;;;5114750;28;20518;-53
2021/08/22 05:26:17;;;;;;;16.20;14.50;;;;;;;;;;5113118;28;20478;-55
2021/08/22 05:28:44;;;;;;;15.17;12.77;;;;;;;;;;5106864;28;20459;-58
2021/08/22 05:31:13;;;;;;;17.63;13.90;;;;;;;;;;5118333;28;20455;-56
2021/08/22 05:33:40;;;;;;;18.73;16.20;;;;;;;;;;5118433;28;20498;-56
2021/08/22 05:36:17;;;;;;;20.53;15.53;;;;;;;;;;5114348;28;20475;-55
2021/08/22 05:38:44;;;;;;;15.57;12.53;;;;;;;;;;5100583;28;20458;-59
2021/08/22 05:41:18;;;;;;;16.73;14.40;;;;;;;;;;5106805;28;20456;-54
2021/08/22 05:43:46;;;;;;;17.70;12.80;;;;;;;;;;5098195;28;20456;-56
2021/08/22 05:46:14;;;;;;;16.90;13.50;;;;;;;;;;5107140;28;20468;-51
2021/08/22 05:48:56;;;;;;;18.50;12.00;;;;;;;;;;5118372;28;20461;-51
2021/08/22 05:51:23;;;;;;;15.27;13.10;;;;;;;;;;5118425;28;20455;-50
2021/08/22 05:53:51;;;;;;;17.20;12.40;;;;;;;;;;5118130;28;20482;-51
2021/08/22 05:56:22;;;;;;;16.10;14.37;;;;;;;;;;5118087;28;20826;-56
2021/08/22 05:58:49;;;;;;;21.47;17.13;;;;;;;;;;5115910;28;20483;-48
2021/08/22 06:01:18;;;;;;;17.87;14.10;;;;;;;;;;5118035;28;20530;-59
2021/08/22 06:03:51;;;;;;;14.47;12.90;;;;;;;;;;5117696;28;20439;-61
2021/08/22 06:06:20;;;;;;;13.43;11.80;;;;;;;;;;5118071;28;20653;-58
2021/08/22 06:08:47;;;;;;;17.20;12.70;;;;;;;;;;5117838;28;20453;-53
2021/08/22 06:11:21;;;;;;;12.20;10.27;;;;;;;;;;5117635;28;20435;-58
2021/08/22 06:13:49;;;;;;;17.57;13.40;;;;;;;;;;5117485;28;20674;-56
2021/08/22 06:16:17;;;;;;;15.80;14.00;;;;;;;;;;5117078;28;20459;-51
2021/08/22 06:18:47;;;;;;;13.37;11.43;;;;;;;;;;5117253;28;20494;-51
2021/08/22 06:21:14;;;;;;;17.63;13.80;;;;;;;;;;5117573;28;20846;-52
2021/08/22 06:23:44;;;;;;;13.87;11.93;;;;;;;;;;5118077;28;20442;-54
2021/08/22 06:26:12;;;;;;;12.87;9.30;;;;;;;;;;5117616;28;20455;-56
2021/08/22 06:28:41;;;;;;;16.97;11.50;;;;;;;;;;5117634;28;20461;-57
2021/08/22 06:31:09;;;;;;;16.40;12.63;;;;;;;;;;5117693;28;20463;-54
2021/08/22 06:33:38;;;;;;;15.13;11.90;;;;;;;;;;5117606;28;20522;-53
2021/08/22 06:36:06;;;;;;;13.50;9.87;;;;;;;;;;5118131;28;20435;-53
2021/08/22 06:38:39;;;;;;;14.67;10.60;;;;;;;;;;5117632;28;20459;-53
2021/08/22 06:41:07;;;;;;;11.67;9.27;;;;;;;;;;5117508;28;20493;-51
2021/08/22 06:43:34;;;;;;;15.70;9.83;;;;;;;;;;5117580;28;20450;-51
2021/08/22 06:46:01;;;;;;;14.70;10.77;;;;;;;;;;5117292;28;20458;-55
2021/08/22 06:48:28;;;;;;;12.00;10.50;;;;;;;;;;5117367;28;20431;-58
2021/08/22 06:51:09;;;;;;;12.43;8.27;;;;;;;;;;5117174;28;20458;-55
2021/08/22 06:53:36;;;;;;;11.13;9.20;;;;;;;;;;5117040;28;20485;-53
2021/08/22 06:56:03;;;;;;;9.63;7.80;;;;;;;;;;5117308;28;20450;-57
2021/08/22 06:58:30;;;;;;;9.83;8.57;;;;;;;;;;5116317;28;20475;-57
2021/08/22 07:00:58;;;;;;;9.07;7.43;;;;;;;;;;5116664;28;20497;-52
2021/08/22 07:03:28;;;;;;;10.70;7.50;;;;;;;;;;5116500;28;20462;-51
2021/08/22 07:05:56;;;;;;;8.67;6.67;;;;;;;;;;5116544;28;20449;-52
2021/08/22 07:08:26;;;;;;;12.00;8.07;;;;;;;;;;5117208;28;20447;-55
2021/08/22 07:10:53;;;;;;;8.60;7.47;;;;;;;;;;5116998;28;20435;-49
2021/08/22 07:13:27;;;;;;;8.63;7.33;;;;;;;;;;5117277;28;20502;-52
2021/08/22 07:16:01;;;;;;;10.30;6.53;;;;;;;;;;5116789;28;20444;-54
2021/08/22 07:18:28;;;;;;;8.00;6.40;;;;;;;;;;5117153;28;20471;-52
2021/08/22 07:20:55;;;;;;;7.10;5.83;;;;;;;;;;5116965;28;20415;-49
2021/08/22 07:23:23;;;;;;;9.40;5.90;;;;;;;;;;5116590;28;20474;-58
2021/08/22 07:25:52;;;;;;;7.27;6.50;;;;;;;;;;5116793;28;20446;-58
2021/08/22 07:28:20;;;;;;;15.13;6.50;;;;;;;;;;5116830;28;20443;-52
2021/08/22 07:30:47;;;;;;;7.20;5.43;;;;;;;;;;5120644;28;20450;-57
2021/08/22 07:33:16;;;;;;;8.97;5.70;;;;;;;;;;5120773;28;20466;-56
2021/08/22 07:35:43;;;;;;;11.63;5.60;;;;;;;;;;5120588;28;20432;-53
2021/08/22 07:38:10;;;;;;;10.10;6.17;;;;;;;;;;5120640;28;20448;-52
2021/08/22 07:40:38;;;;;;;7.80;5.83;;;;;;;;;;5119990;28;20443;-55
2021/08/22 07:43:07;;;;;;;7.77;5.80;;;;;;;;;;5120784;28;20439;-50
2021/08/22 07:45:36;;;;;;;11.17;5.90;;;;;;;;;;5115539;28;20481;-53
2021/08/22 07:48:03;;;;;;;10.67;6.23;;;;;;;;;;5100268;28;20435;-48
2021/08/22 07:51:10;;;;;;;8.53;5.13;;;;;;;;;;5099965;28;20452;-57
2021/08/22 07:53:38;;;;;;;8.10;6.13;;;;;;;;;;5119649;28;20497;-50
2021/08/22 07:56:05;;;;;;;11.33;6.30;;;;;;;;;;5120285;28;20455;-52
2021/08/22 07:58:35;;;;;;;6.70;5.07;;;;;;;;;;5117935;28;20478;-45
2021/08/22 08:01:02;;;;;;;7.50;5.40;;;;;;;;;;5119635;28;20459;-50
2021/08/22 08:06:34;;;;;;;7.77;4.60;;;;;;;;;;5119771;28;20422;-56
2021/08/22 08:09:01;;;;;;;7.97;5.00;;;;;;;;;;5120312;28;20435;-53
2021/08/22 08:11:44;;;;;;;6.07;4.20;;;;;;;;;;5119152;28;20437;-51
2021/08/22 08:14:33;;;;;;;7.43;5.73;;;;;;;;;;5120116;28;20482;-54
2021/08/22 08:17:09;;;;;;;5.87;4.77;;;;;;;;;;5119939;28;20435;-57
2021/08/22 08:19:41;;;;;;;6.97;5.63;;;;;;;;;;5119891;28;20430;-52
2021/08/22 08:22:09;;;;;;;6.47;4.50;;;;;;;;;;5119848;28;20473;-54
2021/08/22 08:24:37;;;;;;;6.87;5.10;;;;;;;;;;5120060;28;20451;-53
2021/08/22 08:27:04;;;;;;;8.40;4.80;;;;;;;;;;5119508;28;20408;-53
2021/08/22 08:29:41;;;;;;;10.73;6.47;;;;;;;;;;5119717;28;20451;-51
2021/08/22 08:32:24;;;;;;;8.70;5.43;;;;;;;;;;5118670;28;20459;-58
2021/08/22 08:35:01;;;;;;;9.60;6.00;;;;;;;;;;5099104;28;20520;-51
2021/08/22 08:37:28;;;;;;;7.90;5.93;;;;;;;;;;5114466;28;20434;-53
2021/08/22 08:39:56;;;;;;;6.30;5.47;;;;;;;;;;5099536;28;20436;-50
2021/08/22 08:42:24;;;;;;;11.23;6.30;;;;;;;;;;5097955;28;20432;-50
2021/08/22 08:44:54;;;;;;;7.80;6.13;;;;;;;;;;5098899;28;20450;-58
2021/08/22 08:47:21;;;;;;;9.20;5.40;;;;;;;;;;5113038;28;20450;-50
2021/08/22 08:49:50;;;;;;;8.60;6.40;;;;;;;;;;5101181;28;20463;-57
2021/08/22 08:52:23;;;;;;;5.43;4.70;;;;;;;;;;5118917;28;20455;-57
2021/08/22 08:54:52;;;;;;;7.03;6.30;;;;;;;;;;5119055;28;20521;-56
2021/08/22 08:57:19;;;;;;;10.50;6.93;;;;;;;;;;5117351;28;20471;-55
2021/08/22 08:59:47;;;;;;;7.80;6.03;;;;;;;;;;5118020;28;20466;-54
2021/08/22 09:02:36;;;;;;;7.70;6.37;;;;;;;;;;5119048;28;20427;-56
2021/08/22 09:05:17;;;;;;;7.70;6.20;;;;;;;;;;5118621;28;20447;-53
2021/08/22 09:08:07;;;;;;;9.47;7.07;;;;;;;;;;5118739;28;20431;-51
2021/08/22 09:10:58;;;;;;;6.93;6.23;;;;;;;;;;5101744;28;20686;-55
2021/08/22 09:13:54;;;;;;;8.90;6.27;;;;;;;;;;5118221;28;20471;-57
2021/08/22 09:16:40;;;;;;;10.57;7.13;;;;;;;;;;5071955;28;20454;-54
2021/08/22 09:19:28;;;;;;;8.90;6.13;;;;;;;;;;5118664;28;20431;-55
2021/08/22 09:22:18;;;;;;;8.87;7.37;;;;;;;;;;5118198;28;20435;-54
2021/08/22 09:25:14;;;;;;;9.63;6.90;;;;;;;;;;5097748;28;20448;-55
2021/08/22 09:27:56;;;;;;;8.77;6.87;;;;;;;;;;5097755;28;20451;-52
2021/08/22 09:30:47;;;;;;;11.50;7.47;;;;;;;;;;5094949;28;20463;-55
2021/08/22 09:33:39;;;;;;;7.20;6.50;;;;;;;;;;5117493;28;20637;-56
2021/08/22 09:36:37;;;;;;;8.70;6.93;;;;;;;;;;5050704;28;20426;-57
2021/08/22 09:39:25;;;;;;;12.23;7.37;;;;;;;;;;5064541;28;20428;-54
2021/08/22 09:42:13;;;;;;;8.27;6.70;;;;;;;;;;5097800;28;20432;-49
2021/08/22 09:45:08;;;;;;;8.07;6.63;;;;;;;;;;5097341;28;20509;-49
2021/08/22 09:47:50;;;;;;;8.03;6.47;;;;;;;;;;5117684;28;20445;-55
2021/08/22 09:53:55;;;;;;;8.90;6.60;;;;;;;;;;5082228;27;1463179;-54
2021/08/22 09:56:41;;;;;;;14.83;7.47;;;;;;;;;;5113717;28;20205;-53
2021/08/22 09:59:38;;;;;;;9.13;6.50;;;;;;;;;;5113944;28;20451;-51
2021/08/22 10:02:25;;;;;;;9.33;7.30;;;;;;;;;;5113661;28;20510;-54
2021/08/22 10:08:18;;;;;;;9.10;6.20;;;;;;;;;;5093227;28;20496;-55
2021/08/22 10:14:05;;;;;;;11.33;6.83;;;;;;;;;;5012766;28;20440;-55
2021/08/22 10:16:33;;;;;;;7.17;6.03;;;;;;;;;;5100169;28;20507;-52
2021/08/22 10:19:05;;;;;;;8.07;5.90;;;;;;;;;;5113327;28;20456;-58
2021/08/22 10:21:33;;;;;;;9.90;7.20;;;;;;;;;;5112705;28;20522;-54
2021/08/22 10:24:01;;;;;;;7.23;5.87;;;;;;;;;;5113151;28;20440;-52
2021/08/22 10:27:04;;;;;;;9.53;5.47;;;;;;;;;;5112726;28;20444;-58
2021/08/22 10:29:33;;;;;;;8.47;6.20;;;;;;;;;;5096076;28;20484;-52
2021/08/22 10:32:09;;;;;;;11.90;6.10;;;;;;;;;;5092552;28;20490;-57
2021/08/22 10:34:40;;;;;;;7.70;6.23;;;;;;;;;;5092836;28;20458;-58
2021/08/22 10:37:27;;;;;;;7.50;6.13;;;;;;;;;;5092641;28;20486;-57
2021/08/22 10:39:55;;;;;;;6.70;5.13;;;;;;;;;;5081120;28;20448;-58
2021/08/22 10:42:26;;;;;;;6.33;5.40;;;;;;;;;;5092583;28;20429;-58
2021/08/22 10:44:54;;;;;;;5.80;4.00;;;;;;;;;;5077969;28;20520;-50
2021/08/22 10:47:54;;;;;;;6.53;4.57;;;;;;;;;;5071796;28;20480;-56
2021/08/22 10:50:22;;;;;;;8.50;4.60;;;;;;;;;;5072456;28;20472;-58
2021/08/22 10:52:51;;;;;;;8.70;4.53;;;;;;;;;;5071735;28;20493;-52
2021/08/22 10:55:50;;;;;;;13.17;4.73;;;;;;;;;;5071976;28;20468;-55
2021/08/22 10:58:17;;;;;;;9.30;4.17;;;;;;;;;;5095756;28;20483;-55
2021/08/22 11:00:46;;;;;;;8.07;4.90;;;;;;;;;;5112000;28;20474;-54
2021/08/22 11:06:18;;;;;;;5.63;4.03;;;;;;;;;;5096694;28;20483;-47
2021/08/22 11:08:46;;;;;;;4.27;3.43;;;;;;;;;;5098524;28;20482;-53
2021/08/22 11:11:16;;;;;;;6.37;2.80;;;;;;;;;;5098728;28;20467;-55
2021/08/22 11:13:52;;;;;;;5.63;3.33;;;;;;;;;;5098725;28;20440;-52
2021/08/22 11:16:53;;;;;;;6.60;3.50;;;;;;;;;;5095787;28;20420;-53
2021/08/22 11:19:26;;;;;;;7.50;3.30;;;;;;;;;;5082890;28;20484;-54
2021/08/22 11:21:54;;;;;;;5.33;3.10;;;;;;;;;;5078722;28;20479;-59
2021/08/22 11:24:50;;;;;;;4.50;2.63;;;;;;;;;;5078481;28;20456;-52
2021/08/22 11:27:20;;;;;;;6.23;3.33;;;;;;;;;;5077950;28;20472;-56
2021/08/22 11:29:54;;;;;;;4.50;3.00;;;;;;;;;;5077565;28;20456;-55
2021/08/22 11:32:21;;;;;;;5.33;2.90;;;;;;;;;;5078012;28;20493;-54
2021/08/22 11:34:48;;;;;;;5.90;3.70;;;;;;;;;;5078212;28;20449;-55
2021/08/22 11:37:34;;;;;;;6.07;3.50;;;;;;;;;;5077655;28;20441;-55
2021/08/22 11:40:07;;;;;;;7.20;4.43;;;;;;;;;;5080552;28;20447;-53
2021/08/22 11:42:36;;;;;;;6.23;3.97;;;;;;;;;;5077296;28;20465;-55
2021/08/22 11:45:14;;;;;;;6.73;3.67;;;;;;;;;;5077266;28;20472;-54
2021/08/22 11:47:42;;;;;;;7.23;3.67;;;;;;;;;;5090473;28;20498;-59
2021/08/22 11:50:12;;;;;;;7.53;3.87;;;;;;;;;;5097393;28;20440;-55
2021/08/22 11:52:53;;;;;;;5.87;3.77;;;;;;;;;;5082732;28;20562;-56
2021/08/22 11:55:24;;;;;;;11.27;4.27;;;;;;;;;;5088483;28;20496;-51
2021/08/22 11:57:52;;;;;;;6.67;4.50;;;;;;;;;;5084077;28;20440;-55
2021/08/22 12:00:26;;;;;;;7.23;4.07;;;;;;;;;;5080396;28;20453;-51
2021/08/22 12:02:58;;;;;;;6.33;3.30;;;;;;;;;;5078855;28;20523;-57
2021/08/22 12:05:27;;;;;;;4.77;3.07;;;;;;;;;;5075423;28;20461;-55
2021/08/22 12:08:05;;;;;;;6.07;3.57;;;;;;;;;;5083085;28;20448;-53
2021/08/22 12:10:38;;;;;;;9.37;4.83;;;;;;;;;;5074875;28;20483;-54
2021/08/22 12:16:44;;;;;;;8.40;4.50;;;;;;;;;;5038288;28;20556;-53
2021/08/22 12:19:18;;;;;;;7.13;3.67;;;;;;;;;;5080084;28;20469;-57
2021/08/22 12:21:46;;;;;;;8.03;4.90;;;;;;;;;;5075866;28;20449;-53
2021/08/22 12:24:31;;;;;;;6.77;4.27;;;;;;;;;;5081335;28;20520;-58
2021/08/22 12:27:01;;;;;;;7.27;3.87;;;;;;;;;;5079880;28;20492;-55
2021/08/22 12:29:55;;;;;;;14.27;3.90;;;;;;;;;;5076109;28;20581;-52
2021/08/22 12:32:37;;;;;;;7.23;3.67;;;;;;;;;;5078905;28;20483;-53
2021/08/22 12:35:13;;;;;;;8.67;3.83;;;;;;;;;;5088262;28;20461;-56
2021/08/22 12:37:45;;;;;;;4.97;3.00;;;;;;;;;;5075144;28;20456;-57
2021/08/22 12:40:13;;;;;;;5.23;3.10;;;;;;;;;;5087470;28;20464;-57
2021/08/22 12:42:45;;;;;;;9.23;3.50;;;;;;;;;;5077978;28;20467;-56
2021/08/22 12:45:14;;;;;;;10.37;5.13;;;;;;;;;;5085473;28;20452;-54
2021/08/22 12:47:44;;;;;;;14.03;4.47;;;;;;;;;;5079068;28;20594;-55
2021/08/22 12:50:14;;;;;;;7.00;3.20;;;;;;;;;;5084175;28;20452;-54
2021/08/22 12:52:47;;;;;;;9.33;3.43;;;;;;;;;;5077355;28;20492;-55
2021/08/22 12:55:30;;;;;;;5.47;3.33;;;;;;;;;;5072598;28;20507;-53
2021/08/22 12:57:59;;;;;;;6.23;3.77;;;;;;;;;;5087285;28;20563;-56
2021/08/22 13:00:26;;;;;;;7.50;4.47;;;;;;;;;;5082558;28;20453;-54
2021/08/22 13:02:57;;;;;;;7.20;3.33;;;;;;;;;;5081138;28;20465;-55
2021/08/22 13:05:26;;;;;;;7.90;3.17;;;;;;;;;;5074217;28;20467;-55
2021/08/22 13:08:04;;;;;;;9.27;3.60;;;;;;;;;;5086056;28;20447;-56
2021/08/22 13:10:32;;;;;;;6.83;3.50;;;;;;;;;;5081490;28;20456;-55
2021/08/22 13:13:04;;;;;;;6.90;2.80;;;;;;;;;;5074448;28;20495;-53
2021/08/22 13:15:37;;;;;;;4.90;4.00;;;;;;;;;;5078601;28;20464;-49
2021/08/22 13:18:09;;;;;;;9.07;3.00;;;;;;;;;;5078950;28;20464;-56
2021/08/22 13:20:38;;;;;;;6.23;3.03;;;;;;;;;;5082277;28;20509;-49
2021/08/22 13:23:06;;;;;;;3.77;2.43;;;;;;;;;;5074593;28;20457;-52
2021/08/22 13:25:34;;;;;;;9.13;7.40;;;;;;;;;;5083602;28;20489;-58
2021/08/22 13:28:33;;;;;;;5.03;3.57;;;;;;;;;;5081255;28;20506;-57
2021/08/22 13:31:02;;;;;;;4.70;3.03;;;;;;;;;;5091831;28;20500;-54
2021/08/22 13:33:38;;;;;;;5.40;3.57;;;;;;;;;;5073929;28;20491;-54
2021/08/22 13:36:06;;;;;;;8.60;3.20;;;;;;;;;;5092271;28;20511;-52
2021/08/22 13:38:36;;;;;;;5.43;3.47;;;;;;;;;;5070997;28;20472;-59
2021/08/22 13:41:20;;;;;;;5.20;3.20;;;;;;;;;;5074482;28;20517;-54
2021/08/22 13:43:52;;;;;;;7.27;3.50;;;;;;;;;;5079681;28;20432;-53
2021/08/22 13:46:23;;;;;;;5.83;3.83;;;;;;;;;;5087993;28;20455;-50
2021/08/22 13:49:04;;;;;;;8.40;3.30;;;;;;;;;;5088095;28;20502;-56
2021/08/22 13:54:35;;;;;;;8.90;6.73;;;;;;;;;;5087967;28;20436;-54
2021/08/22 13:57:03;;;;;;;8.13;4.63;;;;;;;;;;5082069;28;20460;-57
2021/08/22 13:59:46;;;;;;;9.17;3.93;;;;;;;;;;5079465;28;20453;-50
2021/08/22 14:02:16;;;;;;;7.53;4.20;;;;;;;;;;5072802;28;20440;-56
2021/08/22 14:04:52;;;;;;;4.40;2.27;;;;;;;;;;5073248;28;20495;-52
2021/08/22 14:07:23;;;;;;;6.57;3.60;;;;;;;;;;5081645;28;20460;-55
2021/08/22 14:09:51;;;;;;;5.10;3.27;;;;;;;;;;5072855;28;20464;-53
2021/08/22 14:12:35;;;;;;;8.20;3.90;;;;;;;;;;5088963;28;20456;-54
2021/08/22 14:15:02;;;;;;;5.13;2.67;;;;;;;;;;5077592;28;20475;-56
2021/08/22 14:17:32;;;;;;;6.67;3.17;;;;;;;;;;5075439;28;20449;-51
2021/08/22 14:20:07;;;;;;;6.83;2.73;;;;;;;;;;5075045;28;20435;-53
2021/08/22 14:22:37;;;;;;;6.23;3.40;;;;;;;;;;5075996;28;20452;-58
2021/08/22 14:25:08;;;;;;;4.10;2.57;;;;;;;;;;5081069;28;20457;-56
2021/08/22 14:27:43;;;;;;;4.60;2.73;;;;;;;;;;5079639;28;20467;-57
2021/08/22 14:30:11;;;;;;;11.20;2.87;;;;;;;;;;5081489;28;20452;-54
2021/08/22 14:32:57;;;;;;;5.23;2.73;;;;;;;;;;5071492;28;20492;-57
2021/08/22 14:35:24;;;;;;;5.17;2.80;;;;;;;;;;5081510;28;20444;-54
2021/08/22 14:37:53;;;;;;;6.33;2.90;;;;;;;;;;5087746;28;20448;-54
2021/08/22 14:40:22;;;;;;;5.47;3.77;;;;;;;;;;5085372;28;20439;-56
2021/08/22 14:42:50;;;;;;;6.37;4.10;;;;;;;;;;5095337;28;20503;-55
2021/08/22 14:45:17;;;;;;;5.53;3.20;;;;;;;;;;5088645;28;20488;-51
2021/08/22 14:47:51;;;;;;;7.20;3.33;;;;;;;;;;5075883;28;20457;-54
2021/08/22 14:50:20;;;;;;;4.00;2.50;;;;;;;;;;5075207;28;20465;-59
2021/08/22 14:52:52;;;;;;;4.90;2.90;;;;;;;;;;5075989;28;20481;-57
2021/08/22 14:55:45;;;;;;;4.30;2.83;;;;;;;;;;5082418;28;20444;-54
2021/08/22 15:01:16;;;;;;;6.13;3.00;;;;;;;;;;5074828;28;20451;-54
2021/08/22 15:03:44;;;;;;;6.97;4.20;;;;;;;;;;5074712;28;20506;-57
2021/08/22 15:06:12;;;;;;;6.63;3.57;;;;;;;;;;5073971;28;20444;-54
2021/08/22 15:08:40;;;;;;;5.03;3.03;;;;;;;;;;5089004;28;20463;-57
2021/08/22 15:11:32;;;;;;;6.07;3.83;;;;;;;;;;5074941;28;20471;-58
2021/08/22 15:14:05;;;;;;;5.00;3.00;;;;;;;;;;5092776;28;20468;-50
2021/08/22 15:16:33;;;;;;;7.47;2.70;;;;;;;;;;5092879;28;20456;-54
2021/08/22 15:19:02;;;;;;;5.10;2.80;;;;;;;;;;5093732;28;20456;-51
2021/08/22 15:21:36;;;;;;;3.87;2.40;;;;;;;;;;5092680;28;20475;-58
2021/08/22 15:24:03;;;;;;;7.37;2.70;;;;;;;;;;5085106;28;20852;-52
2021/08/22 15:26:31;;;;;;;6.10;2.30;;;;;;;;;;5088221;28;20516;-49
2021/08/22 15:28:59;;;;;;;5.30;2.90;;;;;;;;;;5082332;28;20482;-49